createdAt,value
2022-12-16T00:01:16.334Z,100568.88
2022-12-16T00:03:48.156Z,100569.56
2022-12-16T00:06:14.977Z,100582.91
2022-12-16T00:08:41.437Z,100575.13
2022-12-16T00:11:08.231Z,100571.78
2022-12-16T00:13:36.490Z,100569.56
2022-12-16T00:16:11.370Z,100572.63
2022-12-16T00:18:37.832Z,100566.94
2022-12-16T00:21:05.099Z,100567.91
2022-12-16T00:23:33.086Z,100561.53
2022-12-16T00:25:59.939Z,100567.06
2022-12-16T00:28:26.881Z,100569.56
2022-12-16T00:30:55.133Z,100563.59
2022-12-16T00:33:24.087Z,100559.28
2022-12-16T00:35:51.465Z,100567.75
2022-12-16T00:38:18.602Z,100563.72
2022-12-16T00:40:45.182Z,100568.75
2022-12-16T00:43:11.759Z,100567.06
2022-12-16T00:45:39.383Z,100567.91
2022-12-16T00:48:06.581Z,100565.69
2022-12-16T00:50:33.514Z,100564.56
2022-12-16T00:53:00.393Z,100564.84
2022-12-16T00:55:27.265Z,100574.59
2022-12-16T00:57:53.656Z,100561.78
2022-12-16T01:00:22.522Z,100566.50
2022-12-16T01:02:50.789Z,100563.47
2022-12-16T01:05:20.759Z,100571.53
2022-12-16T01:07:48.477Z,100572.31
2022-12-16T01:10:15.205Z,100557.47
2022-12-16T01:12:41.685Z,100566.22
2022-12-16T01:15:09.389Z,100571.78
2022-12-16T01:17:36.039Z,100576.63
2022-12-16T01:20:02.901Z,100572.63
2022-12-16T01:22:33.536Z,100578.84
2022-12-16T01:25:01.136Z,100575.66
2022-12-16T01:27:28.836Z,100575.66
2022-12-16T01:29:55.492Z,100573.16
2022-12-16T01:32:22.947Z,100582.34
2022-12-16T01:34:55.408Z,100587.63
2022-12-16T01:37:23.523Z,100577.31
2022-12-16T01:39:50.777Z,100583.19
2022-12-16T01:42:22.344Z,100584.69
2022-12-16T01:44:52.105Z,100596.09
2022-12-16T01:47:30.512Z,100592.88
2022-12-16T01:50:04.118Z,100597.03
2022-12-16T01:52:36.864Z,100600.91
2022-12-16T01:57:58.825Z,100602.31
2022-12-16T02:00:25.425Z,100607.06
2022-12-16T02:02:53.396Z,100604.84
2022-12-16T02:05:22.819Z,100609.81
2022-12-16T02:08:16.542Z,100606.19
2022-12-16T02:13:52.669Z,100599.22
2022-12-16T02:16:21.927Z,100603.66
2022-12-16T02:19:02.615Z,100612.41
2022-12-16T02:21:46.303Z,100610.63
2022-12-16T02:24:40.603Z,100609.78
2022-12-16T02:30:06.543Z,100622.56
2022-12-16T02:32:56.944Z,100622.81
2022-12-16T02:35:55.433Z,100623.47
2022-12-16T02:38:30.902Z,100616.75
2022-12-16T02:41:06.730Z,100619.13
2022-12-16T02:46:55.786Z,100625.19
2022-12-16T02:49:22.265Z,100627.66
2022-12-16T02:51:49.701Z,100624.28
2022-12-16T02:54:17.703Z,100616.13
2022-12-16T02:57:02.184Z,100618.06
2022-12-16T02:59:51.959Z,100620.69
2022-12-16T03:02:36.776Z,100627.22
2022-12-16T03:05:12.358Z,100628.88
2022-12-16T03:07:41.401Z,100626.94
2022-12-16T03:10:11.819Z,100624.81
2022-12-16T03:12:41.988Z,100626.06
2022-12-16T03:15:10.175Z,100628.63
2022-12-16T03:20:28.215Z,100624.78
2022-12-16T03:22:59.213Z,100632.56
2022-12-16T03:25:27.931Z,100631.88
2022-12-16T03:28:15.739Z,100626.34
2022-12-16T03:30:47.889Z,100632.75
2022-12-16T03:33:28.357Z,100636.34
2022-12-16T03:36:05.096Z,100635.22
2022-12-16T03:38:33.894Z,100645.63
2022-12-16T03:41:02.693Z,100636.78
2022-12-16T03:43:30.244Z,100639.59
2022-12-16T03:46:03.672Z,100637.22
2022-12-16T03:48:31.005Z,100639.59
2022-12-16T03:53:41.707Z,100643.19
2022-12-16T03:56:08.671Z,100638.38
2022-12-16T03:58:39.900Z,100643.00
2022-12-16T04:01:10.490Z,100640.94
2022-12-16T04:03:37.971Z,100641.72
2022-12-16T04:06:05.169Z,100640.88
2022-12-16T04:11:34.191Z,100636.78
2022-12-16T04:14:19.298Z,100633.81
2022-12-16T04:17:04.419Z,100630.22
2022-12-16T04:19:53.606Z,100641.25
2022-12-16T04:22:44.860Z,100641.88
2022-12-16T04:28:00.569Z,100650.69
2022-12-16T04:30:28.754Z,100657.19
2022-12-16T04:33:17.881Z,100650.56
2022-12-16T04:36:03.249Z,100655.94
2022-12-16T04:38:48.940Z,100654.72
2022-12-16T04:44:36.686Z,100670.41
2022-12-16T04:47:21.376Z,100670.00
2022-12-16T04:50:06.096Z,100673.06
2022-12-16T04:52:50.767Z,100673.06
2022-12-16T04:55:36.096Z,100674.75
2022-12-16T05:01:24.770Z,100691.38
2022-12-16T05:04:09.881Z,100683.25
2022-12-16T05:06:54.680Z,100694.81
2022-12-16T05:09:39.531Z,100689.06
2022-12-16T05:12:24.412Z,100697.03
2022-12-16T05:15:09.313Z,100697.03
2022-12-16T05:17:54.426Z,100699.72
2022-12-16T05:20:39.265Z,100703.19
2022-12-16T05:23:24.255Z,100702.88
2022-12-16T05:26:08.928Z,100705.44
2022-12-16T05:28:54.145Z,100700.06
2022-12-16T05:34:42.021Z,100704.81
2022-12-16T05:37:27.130Z,100715.59
2022-12-16T05:40:11.902Z,100717.56
2022-12-16T05:42:56.873Z,100720.19
2022-12-16T05:45:41.780Z,100723.59
2022-12-16T05:48:26.575Z,100725.03
2022-12-16T05:51:11.502Z,100735.97
2022-12-16T05:53:56.238Z,100736.53
2022-12-16T05:56:41.002Z,100744.19
2022-12-16T05:59:25.765Z,100745.38
2022-12-16T06:02:11.043Z,100752.34
2022-12-16T06:04:55.954Z,100756.19
2022-12-16T06:07:41.155Z,100759.97
2022-12-16T06:10:26.527Z,100759.88
2022-12-16T06:13:11.707Z,100759.75
2022-12-16T06:15:56.777Z,100770.22
2022-12-16T06:18:42.036Z,100764.22
2022-12-16T06:21:26.911Z,100764.91
2022-12-16T06:24:12.291Z,100773.47
2022-12-16T06:26:57.516Z,100784.81
2022-12-16T06:29:42.245Z,100789.44
2022-12-16T06:32:31.581Z,100795.19
2022-12-16T06:35:16.518Z,100804.78
2022-12-16T06:38:01.478Z,100807.19
2022-12-16T06:40:46.400Z,100820.66
2022-12-16T06:43:31.525Z,100824.38
2022-12-16T06:46:16.626Z,100821.06
2022-12-16T06:49:01.399Z,100823.94
2022-12-16T06:51:46.119Z,100831.19
2022-12-16T06:54:31.075Z,100833.25
2022-12-16T06:57:16.026Z,100851.91
2022-12-16T07:00:01.402Z,100839.97
2022-12-16T07:02:46.411Z,100848.91
2022-12-16T07:05:31.182Z,100853.88
2022-12-16T07:08:15.919Z,100847.84
2022-12-16T07:11:15.279Z,100856.47
2022-12-16T07:14:01.090Z,100863.28
2022-12-16T07:16:46.075Z,100864.59
2022-12-16T07:19:31.062Z,100878.50
2022-12-16T07:22:16.024Z,100889.53
2022-12-16T07:25:00.946Z,100889.91
2022-12-16T07:27:45.652Z,100901.28
2022-12-16T07:30:30.952Z,100904.00
2022-12-16T07:33:15.767Z,100910.72
2022-12-16T07:36:02.088Z,100923.63
2022-12-16T07:38:47.046Z,100930.81
2022-12-16T07:41:31.704Z,100935.47
2022-12-16T07:44:16.898Z,100936.41
2022-12-16T07:47:01.719Z,100944.09
2022-12-16T07:49:46.709Z,100937.13
2022-12-16T07:52:31.567Z,100936.66
2022-12-16T07:55:16.467Z,100941.44
2022-12-16T07:58:08.527Z,100937.75
2022-12-16T08:00:54.001Z,100950.06
2022-12-16T08:03:41.100Z,100953.19
2022-12-16T08:06:26.300Z,100948.63
2022-12-16T08:09:11.045Z,100953.69
2022-12-16T08:11:55.853Z,100960.16
2022-12-16T08:14:40.730Z,100962.28
2022-12-16T08:17:33.611Z,100955.09
2022-12-16T08:20:18.389Z,100962.91
2022-12-16T08:23:03.392Z,100959.19
2022-12-16T08:25:48.189Z,100961.56
2022-12-16T08:28:33.165Z,100963.72
2022-12-16T08:31:17.903Z,100969.25
2022-12-16T08:34:02.725Z,100961.44
2022-12-16T08:36:47.527Z,100967.03
2022-12-16T08:39:32.236Z,100976.59
2022-12-16T08:42:16.993Z,100980.88
2022-12-16T08:45:01.797Z,100977.53
2022-12-16T08:47:51.107Z,100981.84
2022-12-16T08:50:35.788Z,100980.00
2022-12-16T08:53:20.641Z,100981.50
2022-12-16T08:56:05.458Z,100982.75
2022-12-16T08:58:50.196Z,100980.38
2022-12-16T09:01:36.252Z,100984.22
2022-12-16T09:04:20.939Z,100986.81
2022-12-16T09:07:06.076Z,100994.41
2022-12-16T09:09:50.757Z,100998.53
2022-12-16T09:12:35.698Z,101004.84
2022-12-16T09:15:40.394Z,101006.00
2022-12-16T09:18:25.476Z,101015.72
2022-12-16T09:21:10.897Z,101005.28
2022-12-16T09:23:56.162Z,101003.75
2022-12-16T09:26:41.466Z,101008.34
2022-12-16T09:29:26.369Z,101012.31
2022-12-16T09:32:11.303Z,101019.00
2022-12-16T09:34:56.365Z,101019.16
2022-12-16T09:37:41.211Z,101019.91
2022-12-16T09:40:31.733Z,101023.66
2022-12-16T09:43:31.927Z,101030.09
2022-12-16T09:46:28.752Z,101029.97
2022-12-16T09:49:43.524Z,101028.88
2022-12-16T09:52:36.893Z,101036.94
2022-12-16T09:55:34.224Z,101034.16
2022-12-16T09:58:20.047Z,101034.34
2022-12-16T10:01:05.389Z,101045.91
2022-12-16T10:03:58.179Z,101040.63
2022-12-16T10:06:54.453Z,101046.47
2022-12-16T10:09:53.246Z,101052.16
2022-12-16T10:13:04.963Z,101055.38
2022-12-16T10:16:00.083Z,101047.53
2022-12-16T10:19:06.014Z,101050.59
2022-12-16T10:22:15.158Z,101053.94
2022-12-16T10:25:08.529Z,101057.25
2022-12-16T10:28:02.964Z,101068.66
2022-12-16T10:30:49.266Z,101073.66
2022-12-16T10:33:36.736Z,101066.94
2022-12-16T10:36:21.968Z,101066.63
2022-12-16T10:39:19.641Z,101066.47
2022-12-16T10:42:10.210Z,101073.75
2022-12-16T10:45:13.965Z,101073.13
2022-12-16T10:47:58.707Z,101070.66
2022-12-16T10:50:43.617Z,101072.28
2022-12-16T10:53:32.901Z,101071.47
2022-12-16T10:56:43.608Z,101070.31
2022-12-16T10:59:28.844Z,101073.31
2022-12-16T11:02:23.976Z,101063.66
2022-12-16T11:05:09.250Z,101065.63
2022-12-16T11:08:10.924Z,101066.72
2022-12-16T11:10:58.898Z,101068.69
2022-12-16T11:13:52.781Z,101075.84
2022-12-16T11:16:40.835Z,101070.41
2022-12-16T11:19:43.999Z,101071.59
2022-12-16T11:22:38.587Z,101064.41
2022-12-16T11:25:31.767Z,101065.53
2022-12-16T11:28:22.728Z,101076.94
2022-12-16T11:31:17.731Z,101073.06
2022-12-16T11:34:03.871Z,101072.53
2022-12-16T11:36:51.195Z,101081.19
2022-12-16T11:39:40.258Z,101074.78
2022-12-16T11:42:30.426Z,101075.81
2022-12-16T11:45:19.319Z,101072.38
2022-12-16T11:48:08.040Z,101076.47
2022-12-16T11:50:57.951Z,101074.78
2022-12-16T11:54:03.059Z,101077.22
2022-12-16T11:56:58.748Z,101081.56
2022-12-16T11:59:58.243Z,101070.03
2022-12-16T12:02:54.925Z,101084.31
2022-12-16T12:05:49.455Z,101080.69
2022-12-16T12:09:13.031Z,101078.09
2022-12-16T12:12:08.378Z,101078.09
2022-12-16T12:15:20.667Z,101076.97
2022-12-16T12:18:35.660Z,101077.69
2022-12-16T12:21:37.677Z,101079.13
2022-12-16T12:24:57.774Z,101085.56
2022-12-16T12:27:52.392Z,101090.00
2022-12-16T12:30:39.387Z,101094.53
2022-12-16T12:33:52.674Z,101089.91
2022-12-16T12:36:38.471Z,101085.78
2022-12-16T12:39:47.844Z,101080.47
2022-12-16T12:42:56.180Z,101081.03
2022-12-16T12:46:09.513Z,101080.22
2022-12-16T12:49:22.394Z,101089.69
2022-12-16T12:52:22.249Z,101096.91
2022-12-16T12:55:19.648Z,101088.88
2022-12-16T12:58:06.916Z,101086.91
2022-12-16T13:00:57.461Z,101100.28
2022-12-16T13:04:04.286Z,101094.31
2022-12-16T13:06:50.522Z,101095.31
2022-12-16T13:09:43.903Z,101096.31
2022-12-16T13:12:28.603Z,101095.66
2022-12-16T13:15:29.386Z,101102.50
2022-12-16T13:18:20.329Z,101101.47
2022-12-16T13:21:15.044Z,101104.34
2022-12-16T13:24:01.807Z,101098.00
2022-12-16T13:26:50.071Z,101098.66
2022-12-16T13:29:34.803Z,101103.31
2022-12-16T13:32:23.024Z,101105.31
2022-12-16T13:35:34.379Z,101111.66
2022-12-16T13:38:23.657Z,101111.84
2022-12-16T13:41:15.928Z,101113.50
2022-12-16T13:44:17.491Z,101122.69
2022-12-16T13:47:10.280Z,101125.66
2022-12-16T13:49:55.070Z,101135.34
2022-12-16T13:52:58.859Z,101135.69
2022-12-16T13:56:01.389Z,101138.03
2022-12-16T13:59:09.269Z,101141.88
2022-12-16T14:02:05.775Z,101139.69
2022-12-16T14:04:58.439Z,101140.63
2022-12-16T14:07:45.075Z,101145.28
2022-12-16T14:10:49.597Z,101145.03
2022-12-16T14:14:00.051Z,101151.44
2022-12-16T14:17:33.456Z,101156.19
2022-12-16T14:20:42.904Z,101162.63
2022-12-16T14:23:58.056Z,101171.66
2022-12-16T14:26:44.862Z,101177.69
2022-12-16T14:29:44.043Z,101181.22
2022-12-16T14:32:41.974Z,101183.41
2022-12-16T14:35:37.957Z,101184.41
2022-12-16T14:38:49.157Z,101180.75
2022-12-16T14:41:38.885Z,101183.06
2022-12-16T14:44:34.035Z,101192.06
2022-12-16T14:47:19.959Z,101188.72
2022-12-16T14:50:10.616Z,101198.06
2022-12-16T14:52:56.012Z,101197.03
2022-12-16T14:55:53.068Z,101196.34
2022-12-16T14:58:40.884Z,101206.69
2022-12-16T15:01:39.996Z,101202.63
2022-12-16T15:04:39.589Z,101209.44
2022-12-16T15:07:31.631Z,101210.72
2022-12-16T15:10:18.408Z,101218.53
2022-12-16T15:13:05.698Z,101219.06
2022-12-16T15:15:53.215Z,101227.06
2022-12-16T15:18:42.163Z,101231.47
2022-12-16T15:21:27.467Z,101234.09
2022-12-16T15:24:12.787Z,101239.53
2022-12-16T15:26:57.835Z,101243.50
2022-12-16T15:29:52.858Z,101256.34
2022-12-16T15:32:44.035Z,101265.00
2022-12-16T15:35:30.227Z,101264.19
2022-12-16T15:38:32.085Z,101275.75
2022-12-16T15:41:17.286Z,101278.16
2022-12-16T15:44:04.775Z,101285.78
2022-12-16T15:46:51.338Z,101289.00
2022-12-16T15:49:59.204Z,101283.97
2022-12-16T15:52:56.047Z,101296.91
2022-12-16T15:55:55.994Z,101300.63
2022-12-16T15:58:47.099Z,101310.75
2022-12-16T16:01:38.993Z,101307.38
2022-12-16T16:04:37.806Z,101313.56
2022-12-16T16:07:22.767Z,101309.91
2022-12-16T16:10:07.633Z,101331.44
2022-12-16T16:12:52.885Z,101327.03
2022-12-16T16:15:37.909Z,101339.66
2022-12-16T16:18:24.873Z,101337.13
2022-12-16T16:21:10.246Z,101338.28
2022-12-16T16:23:55.044Z,101338.28
2022-12-16T16:26:44.904Z,101350.28
2022-12-16T16:29:30.364Z,101357.00
2022-12-16T16:32:15.384Z,101352.06
2022-12-16T16:35:01.018Z,101352.50
2022-12-16T16:37:45.871Z,101364.97
2022-12-16T16:40:47.189Z,101356.69
2022-12-16T16:43:32.432Z,101370.97
2022-12-16T16:46:18.077Z,101370.97
2022-12-16T16:49:02.878Z,101375.47
2022-12-16T16:51:48.210Z,101380.06
2022-12-16T16:54:33.494Z,101381.72
2022-12-16T16:57:20.222Z,101385.47
2022-12-16T17:00:05.165Z,101391.84
2022-12-16T17:02:50.361Z,101392.38
2022-12-16T17:05:35.492Z,101410.88
2022-12-16T17:08:20.352Z,101400.22
2022-12-16T17:11:05.479Z,101404.25
2022-12-16T17:13:50.523Z,101400.09
2022-12-16T17:16:35.674Z,101407.75
2022-12-16T17:19:22.067Z,101404.94
2022-12-16T17:22:06.875Z,101408.97
2022-12-16T17:24:54.303Z,101412.19
2022-12-16T17:27:43.739Z,101412.19
2022-12-16T17:30:44.936Z,101409.66
2022-12-16T17:33:33.222Z,101413.41
2022-12-16T17:36:18.451Z,101420.25
2022-12-16T17:39:03.836Z,101416.97
2022-12-16T17:41:51.064Z,101420.94
2022-12-16T17:44:36.599Z,101426.56
2022-12-16T17:47:22.427Z,101432.41
2022-12-16T17:50:07.284Z,101439.97
2022-12-16T17:52:51.952Z,101446.97
2022-12-16T17:55:36.991Z,101454.06
2022-12-16T17:58:22.626Z,101453.06
2022-12-16T18:01:07.422Z,101456.25
2022-12-16T18:03:52.286Z,101468.38
2022-12-16T18:06:38.589Z,101471.34
2022-12-16T18:09:23.307Z,101476.00
2022-12-16T18:12:08.488Z,101478.16
2022-12-16T18:14:53.197Z,101474.50
2022-12-16T18:17:38.540Z,101487.28
2022-12-16T18:20:23.951Z,101474.84
2022-12-16T18:23:11.953Z,101479.19
2022-12-16T18:25:57.137Z,101477.88
2022-12-16T18:28:43.006Z,101480.59
2022-12-16T18:31:28.390Z,101484.31
2022-12-16T18:34:13.350Z,101487.59
2022-12-16T18:36:58.055Z,101489.66
2022-12-16T18:39:43.039Z,101490.53
2022-12-16T18:42:28.956Z,101501.94
2022-12-16T18:45:13.891Z,101501.59
2022-12-16T18:47:58.511Z,101497.66
2022-12-16T18:50:43.329Z,101495.69
2022-12-16T18:53:28.188Z,101498.19
2022-12-16T18:56:25.399Z,101505.28
2022-12-16T18:59:10.701Z,101507.53
2022-12-16T19:01:56.077Z,101502.81
2022-12-16T19:04:41.365Z,101509.41
2022-12-16T19:07:26.255Z,101507.53
2022-12-16T19:10:10.968Z,101505.56
2022-12-16T19:12:56.043Z,101513.19
2022-12-16T19:15:41.623Z,101515.34
2022-12-16T19:18:26.948Z,101520.47
2022-12-16T19:21:15.391Z,101521.06
2022-12-16T19:24:00.785Z,101528.66
2022-12-16T19:26:46.178Z,101533.66
2022-12-16T19:29:30.982Z,101527.97
2022-12-16T19:32:15.887Z,101539.00
2022-12-16T19:35:00.830Z,101541.47
2022-12-16T19:37:45.623Z,101545.94
2022-12-16T19:40:30.357Z,101540.97
2022-12-16T19:43:15.264Z,101544.19
2022-12-16T19:46:00.077Z,101546.25
2022-12-16T19:48:44.965Z,101543.44
2022-12-16T19:51:29.768Z,101554.69
2022-12-16T19:54:14.574Z,101554.97
2022-12-16T19:56:59.259Z,101554.78
2022-12-16T19:59:44.143Z,101557.59
2022-12-16T20:02:30.607Z,101565.94
2022-12-16T20:05:15.964Z,101573.06
2022-12-16T20:08:00.701Z,101576.28
2022-12-16T20:10:45.555Z,101581.09
2022-12-16T20:13:31.443Z,101587.53
2022-12-16T20:16:24.429Z,101581.56
2022-12-16T20:19:09.815Z,101582.66
2022-12-16T20:21:55.103Z,101582.91
2022-12-16T20:24:41.900Z,101587.22
2022-12-16T20:27:27.025Z,101585.78
2022-12-16T20:30:11.892Z,101590.22
2022-12-16T20:32:57.307Z,101591.31
2022-12-16T20:35:42.137Z,101600.53
2022-12-16T20:38:27.637Z,101593.78
2022-12-16T20:41:20.684Z,101600.78
2022-12-16T20:44:06.364Z,101600.09
2022-12-16T20:46:56.260Z,101607.13
2022-12-16T20:50:00.372Z,101607.41
2022-12-16T20:52:45.545Z,101607.03
2022-12-16T20:55:30.952Z,101607.25
2022-12-16T20:58:15.847Z,101609.56
2022-12-16T21:01:01.054Z,101607.94
2022-12-16T21:03:46.193Z,101611.03
2022-12-16T21:06:31.161Z,101619.72
2022-12-16T21:09:16.725Z,101625.47
2022-12-16T21:12:01.608Z,101630.66
2022-12-16T21:14:46.714Z,101629.66
2022-12-16T21:17:31.868Z,101628.91
2022-12-16T21:20:16.491Z,101633.94
2022-12-16T21:23:01.545Z,101633.00
2022-12-16T21:25:46.491Z,101646.63
2022-12-16T21:28:31.466Z,101649.47
2022-12-16T21:31:18.984Z,101656.75
2022-12-16T21:34:04.176Z,101662.50
2022-12-16T21:36:49.240Z,101669.81
2022-12-16T21:39:33.964Z,101663.91
2022-12-16T21:42:18.823Z,101671.88
2022-12-16T21:45:03.625Z,101674.97
2022-12-16T21:47:48.437Z,101679.72
2022-12-16T21:50:33.297Z,101688.97
2022-12-16T21:53:18.250Z,101694.00
2022-12-16T21:56:10.143Z,101702.97
2022-12-16T21:58:55.178Z,101704.50
2022-12-16T22:01:40.538Z,101710.16
2022-12-16T22:04:25.954Z,101709.44
2022-12-16T22:07:10.928Z,101708.72
2022-12-16T22:09:56.323Z,101706.59
2022-12-16T22:12:41.852Z,101714.47
2022-12-16T22:15:27.698Z,101727.38
2022-12-16T22:18:12.703Z,101731.03
2022-12-16T22:20:57.786Z,101728.25
2022-12-16T22:23:49.612Z,101724.31
2022-12-16T22:26:34.613Z,101731.88
2022-12-16T22:29:19.573Z,101741.94
2022-12-16T22:32:04.396Z,101741.38
2022-12-16T22:34:49.537Z,101748.44
2022-12-16T22:37:51.119Z,101740.56
2022-12-16T22:40:37.314Z,101746.88
2022-12-16T22:43:22.570Z,101750.38
2022-12-16T22:46:16.693Z,101749.13
2022-12-16T22:49:01.574Z,101747.59
2022-12-16T22:51:46.737Z,101746.19
2022-12-16T22:54:48.160Z,101749.25
2022-12-16T22:57:40.654Z,101747.00
2022-12-16T23:00:26.462Z,101751.63
2022-12-16T23:03:11.579Z,101746.84
2022-12-16T23:05:56.572Z,101745.41
2022-12-16T23:08:41.584Z,101746.09
2022-12-16T23:11:37.178Z,101750.44
2022-12-16T23:14:22.458Z,101753.00
2022-12-16T23:17:07.300Z,101753.69
2022-12-16T23:19:52.132Z,101754.78
2022-12-16T23:22:37.143Z,101762.97
2022-12-16T23:25:22.436Z,101763.91
2022-12-16T23:28:07.128Z,101767.81
2022-12-16T23:30:55.068Z,101767.16
2022-12-16T23:33:41.855Z,101768.53
2022-12-16T23:36:27.158Z,101764.06
2022-12-16T23:39:12.353Z,101761.84
2022-12-16T23:41:57.097Z,101774.31
2022-12-16T23:44:42.592Z,101769.69
2022-12-16T23:47:27.558Z,101779.34
2022-12-16T23:50:15.853Z,101776.66
2022-12-16T23:53:00.967Z,101784.81
2022-12-16T23:55:45.924Z,101785.38
2022-12-16T23:58:30.709Z,101792.97
